Time;durP1;ratioP1;P1;durP2;ratioP2;P2;SDS_P1;SDS_P2;PMS_P1;PMS_P2;Temp;Humidity;BMP_temperature;BMP_pressure;BME280_temperature;BME280_humidity;BME280_pressure;Samples;Min_cycle;Max_cycle;Signal;HPM_P1;HPM_P2
2022/10/14 00:02:03;;;;;;;0.50;0.50;;;13.90;99.90;;;;;;4983357;28;20530;-84
2022/10/14 00:04:29;;;;;;;0.50;0.50;;;14.00;99.90;;;;;;4966900;28;20464;-84
2022/10/14 00:06:56;;;;;;;0.50;0.50;;;14.10;99.90;;;;;;4982509;28;20048;-83
2022/10/14 00:09:22;;;;;;;0.65;0.65;;;14.00;99.90;;;;;;4971640;28;20345;-84
2022/10/14 00:11:52;;;;;;;0.50;0.50;;;13.90;99.90;;;;;;4984605;28;20044;-85
2022/10/14 00:14:22;;;;;;;0.57;0.57;;;13.90;99.90;;;;;;4983721;28;20519;-84
2022/10/14 00:16:56;;;;;;;0.50;0.50;;;13.90;99.90;;;;;;4977583;28;20040;-85
2022/10/14 00:19:21;;;;;;;0.50;0.50;;;13.80;99.90;;;;;;4992263;28;20055;-84
2022/10/14 00:21:47;;;;;;;0.55;0.55;;;13.90;99.90;;;;;;4967609;28;20047;-83
2022/10/14 00:24:15;;;;;;;0.50;0.50;;;14.00;99.90;;;;;;4967072;28;20645;-83
2022/10/14 00:26:41;;;;;;;0.50;0.50;;;14.00;99.90;;;;;;4983679;28;20071;-83
2022/10/14 00:29:12;;;;;;;0.50;0.50;;;14.00;99.90;;;;;;4964705;28;20888;-83
2022/10/14 00:31:38;;;;;;;0.50;0.50;;;13.80;99.90;;;;;;4984700;28;20185;-83
2022/10/14 00:34:04;;;;;;;0.50;0.50;;;13.80;99.90;;;;;;4993025;28;20409;-83
2022/10/14 00:36:29;;;;;;;0.55;0.55;;;13.90;99.90;;;;;;4946956;28;20073;-83
2022/10/14 00:38:55;;;;;;;0.50;0.50;;;13.80;99.90;;;;;;4965406;28;20603;-83
2022/10/14 00:41:27;;;;;;;0.50;0.50;;;13.80;99.90;;;;;;4961189;28;20813;-83
2022/10/14 00:43:58;;;;;;;0.50;0.50;;;13.80;99.90;;;;;;4983055;28;20839;-83
2022/10/14 00:46:26;;;;;;;0.50;0.50;;;13.90;99.90;;;;;;4975822;28;20044;-82
2022/10/14 00:48:52;;;;;;;0.50;0.50;;;13.90;99.90;;;;;;4977642;28;20512;-82
2022/10/14 00:51:19;;;;;;;0.50;0.50;;;13.90;99.90;;;;;;4980521;28;20509;-83
2022/10/14 00:53:45;;;;;;;0.50;0.50;;;13.80;99.90;;;;;;4989930;28;20052;-84
2022/10/14 00:56:16;;;;;;;0.50;0.50;;;13.80;99.90;;;;;;4962219;28;20056;-83
2022/10/14 00:58:44;;;;;;;0.50;0.50;;;13.60;99.90;;;;;;4979099;28;20177;-83
2022/10/14 01:01:10;;;;;;;0.60;0.60;;;13.70;99.90;;;;;;4975537;28;20059;-83
2022/10/14 01:03:36;;;;;;;0.50;0.50;;;13.60;99.90;;;;;;4959406;28;20614;-83
2022/10/14 01:06:26;;;;;;;0.50;0.50;;;13.50;99.90;;;;;;4981112;28;20109;-82
2022/10/14 01:09:03;;;;;;;0.60;0.60;;;13.40;99.90;;;;;;4974798;28;20051;-83
2022/10/14 01:11:57;;;;;;;0.50;0.50;;;13.40;99.90;;;;;;4978453;28;20449;-83
2022/10/14 01:15:21;;;;;;;0.50;0.50;;;13.40;99.90;;;;;;4972070;28;20428;-83
2022/10/14 01:18:01;;;;;;;0.57;0.57;;;13.40;99.90;;;;;;4899167;28;20108;-83
2022/10/14 01:21:04;;;;;;;0.50;0.50;;;13.40;99.90;;;;;;4987502;28;20052;-83
2022/10/14 01:24:03;;;;;;;0.50;0.50;;;13.30;99.90;;;;;;4970067;28;20047;-83
2022/10/14 01:27:13;;;;;;;0.57;0.57;;;13.30;99.90;;;;;;4958704;28;20066;-83
2022/10/14 01:30:00;;;;;;;0.55;0.55;;;13.30;99.90;;;;;;4977273;28;20577;-83
2022/10/14 01:32:48;;;;;;;0.60;0.60;;;13.20;99.90;;;;;;4983100;28;20113;-83
2022/10/14 01:35:38;;;;;;;0.50;0.50;;;13.20;99.90;;;;;;4966771;28;20630;-83
2022/10/14 01:38:38;;;;;;;0.60;0.60;;;13.20;99.90;;;;;;4973779;28;20044;-83
2022/10/14 01:41:24;;;;;;;0.60;0.60;;;13.20;99.90;;;;;;4980326;28;20070;-82
2022/10/14 01:43:52;;;;;;;0.50;0.50;;;13.10;99.90;;;;;;4974759;28;20762;-82
2022/10/14 01:46:20;;;;;;;0.50;0.50;;;13.00;99.90;;;;;;4975401;28;20091;-83
2022/10/14 01:48:52;;;;;;;0.50;0.50;;;13.00;99.90;;;;;;4972461;28;20215;-83
2022/10/14 01:51:23;;;;;;;0.60;0.60;;;13.00;99.90;;;;;;4980351;28;20048;-83
2022/10/14 01:53:58;;;;;;;0.60;0.60;;;13.00;99.90;;;;;;4998436;28;20048;-83
2022/10/14 01:56:26;;;;;;;0.57;0.57;;;13.00;99.90;;;;;;4976761;28;20847;-82
2022/10/14 01:58:56;;;;;;;0.50;0.50;;;12.90;99.90;;;;;;4975026;28;20056;-82
2022/10/14 02:01:23;;;;;;;0.50;0.50;;;12.90;99.90;;;;;;4982054;28;20072;-82
2022/10/14 02:03:49;;;;;;;0.50;0.50;;;12.80;99.90;;;;;;4959398;28;20400;-83
2022/10/14 02:06:24;;;;;;;0.50;0.50;;;12.80;99.90;;;;;;4978905;28;20063;-83
2022/10/14 02:09:15;;;;;;;0.50;0.50;;;12.70;99.90;;;;;;4981416;28;20126;-83
2022/10/14 02:12:04;;;;;;;0.60;0.60;;;12.80;99.90;;;;;;4982054;28;20048;-83
2022/10/14 02:14:33;;;;;;;0.60;0.60;;;12.70;99.90;;;;;;4997312;28;20150;-83
2022/10/14 02:17:11;;;;;;;0.60;0.60;;;12.80;99.90;;;;;;4987030;28;20048;-83
2022/10/14 02:20:02;;;;;;;0.50;0.50;;;12.70;99.90;;;;;;4999348;28;20858;-83
2022/10/14 02:22:53;;;;;;;0.60;0.60;;;12.60;99.90;;;;;;4978865;28;20048;-83
2022/10/14 02:25:28;;;;;;;0.60;0.60;;;12.80;99.90;;;;;;5001414;28;20064;-83
2022/10/14 02:27:57;;;;;;;0.50;0.50;;;12.70;99.90;;;;;;4978763;28;20663;-83
2022/10/14 02:30:22;;;;;;;0.52;0.52;;;12.70;99.90;;;;;;4980055;28;20512;-83
2022/10/14 02:32:50;;;;;;;0.50;0.50;;;12.80;99.90;;;;;;4983569;28;20158;-83
2022/10/14 02:35:18;;;;;;;0.60;0.60;;;12.70;99.90;;;;;;4985794;28;20043;-83
2022/10/14 02:37:46;;;;;;;0.50;0.50;;;12.60;99.90;;;;;;5005988;28;20043;-83
2022/10/14 02:40:27;;;;;;;0.50;0.50;;;12.60;99.90;;;;;;4981455;28;20501;-83
2022/10/14 02:42:53;;;;;;;0.50;0.50;;;12.60;99.90;;;;;;4981916;28;20123;-83
2022/10/14 02:45:19;;;;;;;0.55;0.55;;;12.60;99.90;;;;;;4981124;28;20048;-83
2022/10/14 02:47:51;;;;;;;0.60;0.60;;;12.50;99.90;;;;;;5004426;28;20040;-84
2022/10/14 02:50:17;;;;;;;0.60;0.60;;;12.40;99.90;;;;;;4972450;28;20974;-83
2022/10/14 02:52:44;;;;;;;0.50;0.50;;;12.40;99.90;;;;;;4966123;28;20071;-82
2022/10/14 02:55:10;;;;;;;0.50;0.50;;;12.60;99.90;;;;;;4987042;28;20434;-84
2022/10/14 02:57:36;;;;;;;1.88;1.77;;;12.50;99.90;;;;;;4965414;28;20884;-83
2022/10/14 03:00:04;;;;;;;0.50;0.50;;;12.50;99.90;;;;;;4979731;28;20068;-84
2022/10/14 03:02:30;;;;;;;0.50;0.50;;;12.40;99.90;;;;;;4978139;28;20052;-83
2022/10/14 03:04:58;;;;;;;0.50;0.50;;;12.40;99.90;;;;;;4985975;28;20052;-83
2022/10/14 03:07:24;;;;;;;0.50;0.50;;;12.30;99.90;;;;;;4981227;28;20692;-82
2022/10/14 03:09:50;;;;;;;0.50;0.50;;;12.30;99.90;;;;;;4970887;28;20056;-84
2022/10/14 03:12:16;;;;;;;0.50;0.50;;;12.40;99.90;;;;;;4982354;28;20075;-83
2022/10/14 03:14:42;;;;;;;0.50;0.50;;;12.40;99.90;;;;;;4961565;28;20083;-83
2022/10/14 03:17:08;;;;;;;0.50;0.50;;;12.40;99.90;;;;;;4982589;28;20505;-83
2022/10/14 03:19:34;;;;;;;0.50;0.50;;;12.40;99.90;;;;;;4980394;28;20213;-82
2022/10/14 03:22:01;;;;;;;0.60;0.60;;;12.50;99.90;;;;;;4977778;28;20066;-83
2022/10/14 03:24:27;;;;;;;0.50;0.50;;;12.40;99.90;;;;;;4983421;28;20067;-83
2022/10/14 03:26:53;;;;;;;0.60;0.60;;;12.50;99.90;;;;;;4980894;28;20502;-83
2022/10/14 03:29:22;;;;;;;0.50;0.50;;;12.40;99.90;;;;;;4978800;28;20157;-82
2022/10/14 03:31:48;;;;;;;0.60;0.60;;;12.50;99.90;;;;;;4981981;28;20040;-83
2022/10/14 03:34:13;;;;;;;0.60;0.60;;;12.50;99.90;;;;;;4966510;28;20134;-82
2022/10/14 03:36:39;;;;;;;0.60;0.60;;;12.40;99.90;;;;;;4992838;28;20044;-83
2022/10/14 03:39:05;;;;;;;0.50;0.50;;;12.50;99.90;;;;;;4983734;28;20059;-82
2022/10/14 03:41:31;;;;;;;0.60;0.60;;;12.50;99.90;;;;;;4978351;28;20044;-82
2022/10/14 03:43:57;;;;;;;0.50;0.50;;;12.50;99.90;;;;;;4986416;28;20428;-82
2022/10/14 03:46:23;;;;;;;0.50;0.50;;;12.50;99.90;;;;;;4973001;28;20066;-82
2022/10/14 03:48:48;;;;;;;0.52;0.52;;;12.50;99.90;;;;;;4972777;28;20064;-83
2022/10/14 03:51:14;;;;;;;0.55;0.55;;;12.50;99.90;;;;;;4961880;28;20201;-82
2022/10/14 03:53:40;;;;;;;0.50;0.50;;;12.50;99.90;;;;;;4975545;28;20047;-82
2022/10/14 03:56:06;;;;;;;0.60;0.60;;;12.60;99.90;;;;;;4965470;28;20056;-82
2022/10/14 03:58:32;;;;;;;0.60;0.60;;;12.50;99.90;;;;;;4967278;28;20048;-82
2022/10/14 04:00:57;;;;;;;0.50;0.50;;;12.60;99.90;;;;;;4983059;28;20742;-82
2022/10/14 04:03:24;;;;;;;0.60;0.60;;;12.50;99.90;;;;;;4980010;28;20055;-83
2022/10/14 04:05:50;;;;;;;0.60;0.60;;;12.50;99.90;;;;;;4965262;28;20416;-84
2022/10/14 04:08:16;;;;;;;0.60;0.60;;;12.50;99.90;;;;;;4982220;28;20079;-82
2022/10/14 04:10:42;;;;;;;0.60;0.60;;;12.50;99.90;;;;;;4980319;28;20051;-82
2022/10/14 04:13:08;;;;;;;0.60;0.60;;;12.40;99.90;;;;;;4982048;28;20075;-82
2022/10/14 04:15:37;;;;;;;0.50;0.50;;;12.50;99.90;;;;;;4968181;28;20159;-83
2022/10/14 04:18:03;;;;;;;0.60;0.60;;;12.60;99.90;;;;;;4982228;28;20496;-82
2022/10/14 04:20:28;;;;;;;0.50;0.50;;;12.50;99.90;;;;;;4975424;28;20056;-82
2022/10/14 04:22:57;;;;;;;0.50;0.50;;;12.40;99.90;;;;;;4959169;28;20413;-82
2022/10/14 04:25:23;;;;;;;0.50;0.50;;;12.60;99.90;;;;;;4954668;28;20622;-82
2022/10/14 04:27:49;;;;;;;0.50;0.50;;;12.50;99.90;;;;;;4970691;28;20348;-82
2022/10/14 04:30:15;;;;;;;0.52;0.52;;;12.60;99.90;;;;;;4972761;28;20599;-84
2022/10/14 04:32:41;;;;;;;0.50;0.50;;;12.60;99.90;;;;;;4993093;28;20464;-83
2022/10/14 04:35:08;;;;;;;0.50;0.50;;;12.40;99.90;;;;;;4978359;28;20508;-84
2022/10/14 04:37:35;;;;;;;0.55;0.55;;;12.30;99.90;;;;;;4984623;28;20399;-83
2022/10/14 04:40:02;;;;;;;0.52;0.52;;;12.30;99.90;;;;;;4971485;28;20117;-83
2022/10/14 04:42:28;;;;;;;0.60;0.60;;;12.40;99.90;;;;;;4982855;28;20070;-83
2022/10/14 04:45:00;;;;;;;0.50;0.50;;;12.40;99.90;;;;;;4952693;28;20056;-82
2022/10/14 04:47:26;;;;;;;0.52;0.52;;;12.40;99.90;;;;;;4990801;28;20054;-82
2022/10/14 04:49:55;;;;;;;0.60;0.60;;;12.40;99.90;;;;;;4963312;28;20118;-82
2022/10/14 04:52:21;;;;;;;0.55;0.55;;;12.30;99.90;;;;;;4973423;28;20493;-82
2022/10/14 04:54:46;;;;;;;0.50;0.50;;;12.30;99.90;;;;;;4975275;28;20405;-82
2022/10/14 04:57:12;;;;;;;0.50;0.50;;;12.40;99.90;;;;;;4976486;28;20398;-82
2022/10/14 04:59:38;;;;;;;0.60;0.60;;;12.50;99.90;;;;;;4995261;28;20052;-82
2022/10/14 05:02:04;;;;;;;0.60;0.60;;;12.50;99.90;;;;;;4958985;28;20756;-82
2022/10/14 05:04:30;;;;;;;0.57;0.57;;;12.40;99.90;;;;;;4974503;28;20048;-83
2022/10/14 05:06:56;;;;;;;0.60;0.60;;;12.40;99.90;;;;;;4982373;28;20044;-82
2022/10/14 05:09:22;;;;;;;0.50;0.50;;;12.40;99.90;;;;;;4959015;28;20440;-82
2022/10/14 05:11:48;;;;;;;0.55;0.55;;;12.20;99.90;;;;;;4972137;28;20237;-83
2022/10/14 05:14:13;;;;;;;0.50;0.50;;;12.30;99.90;;;;;;4954884;28;20405;-82
2022/10/14 05:16:39;;;;;;;0.60;0.60;;;12.30;99.90;;;;;;4978838;28;20097;-82
2022/10/14 05:19:05;;;;;;;0.50;0.50;;;12.20;99.90;;;;;;4981826;28;20459;-83
2022/10/14 05:21:31;;;;;;;0.52;0.52;;;12.30;99.90;;;;;;4976752;28;20051;-82
2022/10/14 05:23:56;;;;;;;0.50;0.50;;;12.00;99.90;;;;;;4995570;28;20032;-82
2022/10/14 05:26:22;;;;;;;0.50;0.50;;;12.00;99.90;;;;;;4980482;28;20067;-81
2022/10/14 05:28:51;;;;;;;0.50;0.50;;;11.90;99.90;;;;;;4981339;28;20460;-81
2022/10/14 05:31:16;;;;;;;0.50;0.50;;;11.80;99.90;;;;;;4990414;28;20086;-82
2022/10/14 05:33:42;;;;;;;0.50;0.50;;;11.80;99.90;;;;;;4978641;28;20048;-82
2022/10/14 05:36:08;;;;;;;0.50;0.50;;;11.70;99.90;;;;;;4967725;28;20075;-82
2022/10/14 05:38:34;;;;;;;0.50;0.50;;;11.70;99.90;;;;;;4975298;28;20050;-81
2022/10/14 05:40:59;;;;;;;0.50;0.50;;;11.50;99.90;;;;;;4976560;28;20430;-83
2022/10/14 05:43:25;;;;;;;0.50;0.50;;;11.50;99.90;;;;;;4980146;28;20047;-81
2022/10/14 05:45:51;;;;;;;0.50;0.50;;;11.30;99.90;;;;;;4975214;28;20422;-80
2022/10/14 05:48:18;;;;;;;0.60;0.60;;;11.40;99.90;;;;;;4978293;28;20054;-81
2022/10/14 05:50:44;;;;;;;0.50;0.50;;;11.30;99.90;;;;;;4957999;28;20579;-82
2022/10/14 05:53:16;;;;;;;0.50;0.50;;;11.30;99.90;;;;;;4976399;28;20240;-82
2022/10/14 05:55:42;;;;;;;0.60;0.60;;;11.30;99.90;;;;;;4996319;28;20499;-83
2022/10/14 05:58:08;;;;;;;0.50;0.50;;;11.30;99.90;;;;;;4960862;28;20790;-82
2022/10/14 06:00:34;;;;;;;0.50;0.50;;;11.20;99.90;;;;;;4960335;28;20418;-83
2022/10/14 06:03:00;;;;;;;0.60;0.60;;;11.40;99.90;;;;;;4947100;28;20424;-82
2022/10/14 06:05:26;;;;;;;0.50;0.50;;;11.50;99.90;;;;;;4977247;28;20055;-82
2022/10/14 06:07:51;;;;;;;0.55;0.55;;;11.40;99.90;;;;;;4963635;28;20044;-83
2022/10/14 06:10:17;;;;;;;0.50;0.50;;;11.40;99.90;;;;;;4978370;28;20044;-83
2022/10/14 06:12:45;;;;;;;0.50;0.50;;;11.60;99.90;;;;;;4979159;28;20052;-84
2022/10/14 06:15:11;;;;;;;0.60;0.60;;;11.60;99.90;;;;;;4972478;28;20101;-82
2022/10/14 06:17:37;;;;;;;0.60;0.60;;;11.60;99.90;;;;;;4979423;28;20660;-82
2022/10/14 06:20:03;;;;;;;0.60;0.60;;;11.70;99.90;;;;;;4976960;28;20047;-83
2022/10/14 06:22:29;;;;;;;0.60;0.60;;;11.70;99.90;;;;;;4979197;28;20165;-81
2022/10/14 06:24:55;;;;;;;0.60;0.60;;;11.70;99.90;;;;;;4985836;28;20775;-82
2022/10/14 06:27:21;;;;;;;0.50;0.50;;;11.80;99.90;;;;;;4986012;28;20067;-82
2022/10/14 06:29:47;;;;;;;0.50;0.50;;;11.90;99.90;;;;;;5001716;28;20052;-82
2022/10/14 06:32:13;;;;;;;0.60;0.60;;;12.00;99.90;;;;;;4995489;28;20055;-82
2022/10/14 06:34:39;;;;;;;0.50;0.50;;;12.00;99.90;;;;;;4958885;28;20740;-82
2022/10/14 06:37:05;;;;;;;0.57;0.57;;;11.90;99.90;;;;;;4969096;28;20058;-81
2022/10/14 06:39:31;;;;;;;0.55;0.55;;;12.00;99.90;;;;;;4977262;28;20428;-81
2022/10/14 06:41:57;;;;;;;0.50;0.50;;;12.00;99.90;;;;;;4977215;28;20464;-81
2022/10/14 06:44:23;;;;;;;0.50;0.50;;;12.00;99.90;;;;;;4976099;28;20292;-82
2022/10/14 06:46:48;;;;;;;0.50;0.50;;;12.20;99.90;;;;;;4994103;28;20050;-82
2022/10/14 06:49:14;;;;;;;0.60;0.60;;;12.20;99.90;;;;;;4979133;28;20044;-82
2022/10/14 06:51:40;;;;;;;0.60;0.60;;;12.20;99.90;;;;;;4966242;28;20040;-82
2022/10/14 06:54:06;;;;;;;0.60;0.60;;;12.20;99.90;;;;;;4962123;28;20047;-82
2022/10/14 06:56:33;;;;;;;0.57;0.57;;;12.30;99.90;;;;;;4949276;28;20407;-83
2022/10/14 06:58:59;;;;;;;0.60;0.60;;;12.30;99.90;;;;;;4983207;28;20059;-83
2022/10/14 07:01:25;;;;;;;0.50;0.50;;;12.40;99.90;;;;;;4968269;28;20215;-83
2022/10/14 07:03:51;;;;;;;0.50;0.50;;;12.40;99.90;;;;;;4965979;28;21047;-81
2022/10/14 07:06:17;;;;;;;0.50;0.50;;;12.50;99.90;;;;;;4997203;28;20054;-83
2022/10/14 07:08:43;;;;;;;0.50;0.50;;;12.50;99.90;;;;;;4981893;28;20052;-82
2022/10/14 07:11:09;;;;;;;0.60;0.60;;;12.40;99.90;;;;;;4980513;28;20439;-82
2022/10/14 07:13:35;;;;;;;0.60;0.60;;;12.40;99.90;;;;;;4981742;28;20055;-81
2022/10/14 07:16:01;;;;;;;0.55;0.55;;;12.50;99.90;;;;;;4964999;28;20450;-82
2022/10/14 07:18:26;;;;;;;0.50;0.50;;;12.40;99.90;;;;;;4997078;28;20052;-82
2022/10/14 07:20:52;;;;;;;0.60;0.60;;;12.40;99.90;;;;;;4984481;28;20040;-83
2022/10/14 07:23:18;;;;;;;0.60;0.60;;;12.50;99.90;;;;;;4979258;28;20383;-82
2022/10/14 07:25:44;;;;;;;0.50;0.50;;;12.70;99.90;;;;;;4976304;28;20040;-82
2022/10/14 07:28:10;;;;;;;0.60;0.60;;;12.70;99.90;;;;;;4966968;28;20486;-81
2022/10/14 07:30:36;;;;;;;0.50;0.50;;;12.50;99.90;;;;;;4982032;28;20436;-83
2022/10/14 07:33:02;;;;;;;0.55;0.55;;;12.60;99.90;;;;;;4977050;28;20378;-82
2022/10/14 07:35:28;;;;;;;0.60;0.60;;;12.60;99.90;;;;;;4966867;28;20606;-82
2022/10/14 07:37:56;;;;;;;0.50;0.50;;;12.60;99.90;;;;;;4981896;28;20048;-82
2022/10/14 07:40:22;;;;;;;0.50;0.50;;;12.70;99.90;;;;;;4977641;28;20999;-83
2022/10/14 07:42:48;;;;;;;0.50;0.50;;;12.80;99.90;;;;;;4980646;28;20277;-81
2022/10/14 07:45:15;;;;;;;0.50;0.50;;;12.80;99.90;;;;;;4980135;28;20063;-85
2022/10/14 07:47:42;;;;;;;0.50;0.50;;;12.80;99.90;;;;;;4975635;28;20040;-84
2022/10/14 07:50:09;;;;;;;0.50;0.50;;;12.80;99.90;;;;;;4990117;28;20048;-83
2022/10/14 07:52:35;;;;;;;0.50;0.50;;;12.80;99.90;;;;;;4977743;28;20040;-82
2022/10/14 07:55:02;;;;;;;0.50;0.50;;;12.80;99.90;;;;;;4999122;28;20708;-83
2022/10/14 07:57:28;;;;;;;0.50;0.50;;;12.80;99.90;;;;;;4966247;28;20059;-83
2022/10/14 07:59:53;;;;;;;0.50;0.50;;;12.90;99.90;;;;;;4963467;28;20129;-82
2022/10/14 08:02:19;;;;;;;0.50;0.50;;;12.90;99.90;;;;;;4969112;28;20044;-83
2022/10/14 08:04:46;;;;;;;0.50;0.50;;;12.90;99.90;;;;;;4976607;28;20048;-84
2022/10/14 08:07:15;;;;;;;0.50;0.50;;;12.90;99.90;;;;;;5002420;28;20449;-84
2022/10/14 08:09:41;;;;;;;0.50;0.50;;;12.90;99.90;;;;;;4977462;28;20059;-83
2022/10/14 08:12:07;;;;;;;0.50;0.50;;;13.00;99.90;;;;;;4971630;28;20044;-84
2022/10/14 08:14:32;;;;;;;0.50;0.50;;;13.10;99.90;;;;;;4977806;28;20127;-80
2022/10/14 08:16:58;;;;;;;0.50;0.50;;;13.10;99.90;;;;;;4957663;28;20071;-80
2022/10/14 08:19:25;;;;;;;0.50;0.50;;;13.10;99.90;;;;;;4957959;28;20051;-84
2022/10/14 08:21:52;;;;;;;0.50;0.50;;;13.10;99.90;;;;;;4963637;28;20047;-81
2022/10/14 08:24:18;;;;;;;0.50;0.50;;;13.10;99.90;;;;;;4958007;28;20133;-81
2022/10/14 08:26:56;;;;;;;0.50;0.50;;;13.00;99.90;;;;;;4996155;28;20848;-83
2022/10/14 08:29:22;;;;;;;0.50;0.50;;;13.20;99.90;;;;;;4962707;28;20782;-82
2022/10/14 08:31:49;;;;;;;0.50;0.50;;;13.10;99.90;;;;;;4981509;28;20047;-82
2022/10/14 08:34:15;;;;;;;0.50;0.50;;;13.20;99.90;;;;;;4982579;28;20601;-83
2022/10/14 08:36:41;;;;;;;0.50;0.50;;;13.20;99.90;;;;;;4980930;28;20070;-84
2022/10/14 08:39:07;;;;;;;0.50;0.50;;;13.20;99.90;;;;;;4979462;28;20427;-83
2022/10/14 08:42:15;;;;;;;0.50;0.50;;;13.10;99.90;;;;;;4955645;28;20508;-82
2022/10/14 08:44:54;;;;;;;0.50;0.50;;;13.20;99.90;;;;;;4977060;28;20087;-83
2022/10/14 08:47:33;;;;;;;0.50;0.50;;;13.30;99.90;;;;;;4962460;28;20253;-83
2022/10/14 08:50:08;;;;;;;0.50;0.50;;;13.20;99.90;;;;;;4980947;28;20056;-83
2022/10/14 08:52:45;;;;;;;0.50;0.50;;;13.30;99.90;;;;;;5000659;28;20109;-83
2022/10/14 08:55:34;;;;;;;0.50;0.50;;;13.20;99.90;;;;;;4979744;28;20684;-83
2022/10/14 08:58:31;;;;;;;0.50;0.50;;;13.20;99.90;;;;;;4985013;28;20074;-84
2022/10/14 09:01:03;;;;;;;0.52;0.52;;;13.40;99.90;;;;;;4994677;28;20044;-83
2022/10/14 09:03:35;;;;;;;0.50;0.50;;;13.50;99.90;;;;;;4982373;28;20638;-82
2022/10/14 09:06:28;;;;;;;0.50;0.50;;;13.50;99.90;;;;;;4962110;28;20811;-82
2022/10/14 09:09:03;;;;;;;0.50;0.50;;;13.50;99.90;;;;;;4986739;28;20528;-82
2022/10/14 09:11:36;;;;;;;0.50;0.50;;;13.60;99.90;;;;;;4987281;28;20055;-83
2022/10/14 09:14:04;;;;;;;0.50;0.50;;;13.60;99.90;;;;;;4981335;28;20051;-83
2022/10/14 09:16:36;;;;;;;0.50;0.50;;;13.50;99.90;;;;;;4967440;28;20541;-83
2022/10/14 09:19:24;;;;;;;0.50;0.50;;;13.60;99.90;;;;;;4981378;28;20047;-83
2022/10/14 09:21:53;;;;;;;0.50;0.50;;;13.60;99.90;;;;;;4981719;28;20637;-82
2022/10/14 09:24:34;;;;;;;0.50;0.50;;;13.60;99.90;;;;;;4984646;28;20201;-81
2022/10/14 09:27:10;;;;;;;0.50;0.50;;;13.60;99.90;;;;;;4980945;28;20750;-83
2022/10/14 09:29:41;;;;;;;0.50;0.50;;;13.60;99.90;;;;;;4962126;28;20935;-83
2022/10/14 09:32:14;;;;;;;0.50;0.50;;;13.60;99.90;;;;;;4978335;28;20158;-82
2022/10/14 09:34:50;;;;;;;0.50;0.50;;;13.60;99.90;;;;;;4979039;28;20048;-84
2022/10/14 09:37:25;;;;;;;0.50;0.50;;;13.70;99.90;;;;;;4989859;28;20485;-84
2022/10/14 09:39:55;;;;;;;0.50;0.50;;;13.60;99.90;;;;;;4978534;28;20071;-82
2022/10/14 09:42:25;;;;;;;0.50;0.50;;;13.50;99.90;;;;;;4977999;28;20953;-82
2022/10/14 09:45:10;;;;;;;0.50;0.50;;;13.60;99.90;;;;;;4976377;28;20239;-82
2022/10/14 09:47:56;;;;;;;0.50;0.50;;;13.50;99.90;;;;;;4974363;28;20487;-83
2022/10/14 09:50:30;;;;;;;0.50;0.50;;;13.80;99.90;;;;;;4976786;28;20579;-82
2022/10/14 09:53:16;;;;;;;0.50;0.50;;;13.60;99.90;;;;;;4995968;28;20044;-82
2022/10/14 09:55:48;;;;;;;0.50;0.50;;;13.70;99.90;;;;;;4965017;28;20086;-82
2022/10/14 09:58:24;;;;;;;0.50;0.50;;;13.80;99.90;;;;;;4956988;28;20052;-82
2022/10/14 10:00:55;;;;;;;0.50;0.50;;;13.70;99.90;;;;;;4985613;28;20587;-82
2022/10/14 10:03:34;;;;;;;0.50;0.50;;;13.80;99.90;;;;;;4962790;28;20886;-83
2022/10/14 10:06:07;;;;;;;0.50;0.50;;;13.70;99.90;;;;;;4980172;28;20040;-82
2022/10/14 10:08:36;;;;;;;0.50;0.50;;;13.70;99.90;;;;;;4979776;28;20075;-82
2022/10/14 10:11:09;;;;;;;0.90;0.90;;;13.80;99.90;;;;;;4993121;28;20528;-82
2022/10/14 10:13:38;;;;;;;0.50;0.50;;;13.80;99.90;;;;;;4962190;28;20059;-81
2022/10/14 10:16:07;;;;;;;0.50;0.50;;;13.80;99.90;;;;;;4979562;28;20048;-83
2022/10/14 10:18:32;;;;;;;0.50;0.50;;;13.90;99.90;;;;;;4975740;28;20290;-84
2022/10/14 10:21:06;;;;;;;0.50;0.50;;;14.00;99.90;;;;;;4979473;28;20463;-82
2022/10/14 10:23:35;;;;;;;0.50;0.50;;;13.90;99.90;;;;;;4981819;28;20052;-84
2022/10/14 10:26:28;;;;;;;0.50;0.50;;;14.00;99.90;;;;;;4978779;28;20494;-85
2022/10/14 10:28:58;;;;;;;0.50;0.50;;;14.10;99.90;;;;;;4984008;28;20105;-85
2022/10/14 10:32:05;;;;;;;0.50;0.50;;;14.20;99.90;;;;;;4985224;28;20093;-82
2022/10/14 10:34:55;;;;;;;0.50;0.50;;;14.10;99.90;;;;;;4971438;28;20137;-83
2022/10/14 10:37:27;;;;;;;0.50;0.50;;;14.10;99.90;;;;;;4989451;28;20865;-83
2022/10/14 10:40:15;;;;;;;0.50;0.50;;;14.20;99.90;;;;;;4987062;28;20844;-83
2022/10/14 10:43:10;;;;;;;0.50;0.50;;;14.30;99.90;;;;;;4980430;28;21006;-82
2022/10/14 10:45:54;;;;;;;;;;;14.30;99.90;;;;;;5007291;28;20052;-83
2022/10/14 10:48:37;;;;;;;0.50;0.50;;;14.40;99.90;;;;;;4991055;28;19931;-83
2022/10/14 10:51:16;;;;;;;0.50;0.50;;;14.30;99.90;;;;;;4979097;28;20660;-82
2022/10/14 10:54:01;;;;;;;0.50;0.50;;;14.40;99.90;;;;;;4982213;28;20048;-85
2022/10/14 10:56:49;;;;;;;0.50;0.50;;;14.30;99.90;;;;;;4993735;28;20178;-83
2022/10/14 10:59:55;;;;;;;0.50;0.50;;;14.40;99.90;;;;;;4962265;28;20048;-81
2022/10/14 11:02:50;;;;;;;0.50;0.50;;;14.60;99.90;;;;;;4997383;28;20492;-83
2022/10/14 11:05:16;;;;;;;0.50;0.50;;;14.70;99.90;;;;;;4991432;28;20062;-82
2022/10/14 11:14:23;;;;;;;0.50;0.50;;;15.10;99.90;;;;;;4995949;28;20452;-84
2022/10/14 11:17:11;;;;;;;0.50;0.50;;;15.10;99.90;;;;;;4973346;28;20771;-80
2022/10/14 11:20:04;;;;;;;0.50;0.50;;;15.10;99.90;;;;;;4970084;28;20555;-83
2022/10/14 11:22:55;;;;;;;0.50;0.50;;;15.30;99.90;;;;;;5001616;28;20043;-85
2022/10/14 11:25:32;;;;;;;0.50;0.50;;;15.20;99.90;;;;;;4966087;28;20082;-82
2022/10/14 11:28:23;;;;;;;0.50;0.50;;;15.20;99.90;;;;;;4970075;28;20564;-83
2022/10/14 11:31:25;;;;;;;0.50;0.50;;;15.30;99.90;;;;;;4973604;28;20837;-84
2022/10/14 11:34:27;;;;;;;0.50;0.50;;;15.40;99.90;;;;;;4991468;28;20040;-86
2022/10/14 11:37:14;;;;;;;0.50;0.50;;;15.40;99.90;;;;;;4989381;28;20663;-82
2022/10/14 11:40:20;;;;;;;0.50;0.50;;;15.40;99.90;;;;;;4988973;28;20127;-82
2022/10/14 11:43:00;;;;;;;0.50;0.50;;;15.60;99.90;;;;;;4991980;28;20067;-83
2022/10/14 11:45:51;;;;;;;0.50;0.50;;;15.50;99.90;;;;;;4991099;28;20044;-84
2022/10/14 11:48:44;;;;;;;0.50;0.50;;;15.70;99.90;;;;;;4994616;28;20522;-84
2022/10/14 11:51:19;;;;;;;0.40;0.40;;;15.70;99.90;;;;;;5000006;28;20370;-85
2022/10/14 11:54:03;;;;;;;0.40;0.40;;;15.60;99.90;;;;;;4978946;28;20089;-85
2022/10/14 11:56:53;;;;;;;0.50;0.50;;;15.70;99.90;;;;;;5005095;28;20087;-87
2022/10/14 11:59:48;;;;;;;0.50;0.50;;;15.60;99.90;;;;;;4996768;28;20497;-85
2022/10/14 12:02:32;;;;;;;0.50;0.50;;;15.70;99.90;;;;;;5000459;28;20056;-87
2022/10/14 12:05:23;;;;;;;0.50;0.50;;;15.80;99.90;;;;;;4981783;28;20430;-85
2022/10/14 12:08:19;;;;;;;0.47;0.47;;;15.70;99.90;;;;;;4976868;28;20414;-84
2022/10/14 12:11:00;;;;;;;0.50;0.50;;;15.70;99.90;;;;;;4975162;28;21216;-87
2022/10/14 12:13:46;;;;;;;0.60;0.60;;;15.80;99.90;;;;;;5001793;28;20130;-85
2022/10/14 12:16:18;;;;;;;0.40;0.40;;;15.90;99.90;;;;;;4998547;28;20403;-85
2022/10/14 12:18:48;;;;;;;0.50;0.50;;;16.00;99.90;;;;;;4974014;28;20826;-83
2022/10/14 12:21:45;;;;;;;0.50;0.50;;;16.10;99.90;;;;;;4978231;28;20529;-86
2022/10/14 12:24:35;;;;;;;0.50;0.50;;;16.10;99.90;;;;;;4985010;28;20163;-88
2022/10/14 12:27:04;;;;;;;0.50;0.50;;;16.20;99.90;;;;;;5006664;28;20044;-85
2022/10/14 12:29:35;;;;;;;0.40;0.40;;;16.20;99.90;;;;;;4973161;28;20048;-85
2022/10/14 12:32:23;;;;;;;0.50;0.50;;;16.30;99.90;;;;;;4989535;28;20075;-83
2022/10/14 12:34:57;;;;;;;0.50;0.50;;;16.30;99.90;;;;;;4980994;28;20056;-84
2022/10/14 12:37:23;;;;;;;0.50;0.50;;;16.20;99.90;;;;;;4996468;28;20053;-84
2022/10/14 12:40:24;;;;;;;0.50;0.50;;;16.20;99.90;;;;;;4980979;28;20353;-85
2022/10/14 12:43:04;;;;;;;0.50;0.50;;;16.20;99.90;;;;;;4960602;28;20106;-84
2022/10/14 12:45:48;;;;;;;0.50;0.50;;;16.10;99.90;;;;;;4982021;28;20679;-86
2022/10/14 12:48:28;;;;;;;0.50;0.50;;;16.10;99.90;;;;;;4996655;28;20136;-85
2022/10/14 12:51:19;;;;;;;0.50;0.50;;;16.00;99.90;;;;;;5002931;28;20100;-87
2022/10/14 12:54:17;;;;;;;0.43;0.43;;;16.00;99.90;;;;;;4968045;28;20225;-86
2022/10/14 12:57:30;;;;;;;0.50;0.50;;;16.00;99.90;;;;;;4975150;28;20742;-83
2022/10/14 13:00:00;;;;;;;0.50;0.50;;;16.00;99.90;;;;;;4968166;28;20598;-83
2022/10/14 13:02:37;;;;;;;0.50;0.50;;;16.00;99.90;;;;;;4988807;28;20947;-89
2022/10/14 13:05:53;;;;;;;0.50;0.50;;;16.00;99.90;;;;;;4977038;28;20479;-87
2022/10/14 13:08:53;;;;;;;0.50;0.50;;;16.00;99.90;;;;;;4962542;28;20059;-87
2022/10/14 13:12:09;;;;;;;0.50;0.50;;;16.00;99.90;;;;;;5010533;28;20044;-87
2022/10/14 13:14:58;;;;;;;0.50;0.50;;;16.10;99.90;;;;;;4871299;28;20316;-83
2022/10/14 13:17:48;;;;;;;0.50;0.50;;;16.40;99.90;;;;;;4985446;28;20063;-86
2022/10/14 13:20:33;;;;;;;0.50;0.50;;;16.40;99.90;;;;;;4983615;28;20351;-86
2022/10/14 13:23:17;;;;;;;0.50;0.50;;;16.40;99.90;;;;;;4992251;28;20518;-83
2022/10/14 13:25:44;;;;;;;;;;;16.40;99.90;;;;;;4986430;28;20051;-84
2022/10/14 13:28:34;;;;;;;0.50;0.50;;;16.30;99.90;;;;;;4999493;28;19931;-83